createdAt,value
2023-04-26T00:01:20.047Z,38752.09
2023-04-26T00:03:46.717Z,38714.19
2023-04-26T00:06:14.636Z,38738.13
2023-04-26T00:08:42.204Z,38742.13
2023-04-26T00:11:08.698Z,38770.03
2023-04-26T00:13:35.182Z,38778.03
2023-04-26T00:16:01.618Z,38817.91
2023-04-26T00:18:28.349Z,38815.91
2023-04-26T00:20:54.757Z,38811.94
2023-04-26T00:23:21.160Z,38881.75
2023-04-26T00:25:47.633Z,38899.69
2023-04-26T00:28:14.068Z,38927.63
2023-04-26T00:30:47.271Z,38945.56
2023-04-26T00:33:14.251Z,39037.31
2023-04-26T00:35:40.818Z,39049.28
2023-04-26T00:38:07.651Z,39095.16
2023-04-26T00:40:35.413Z,39125.09
2023-04-26T00:43:02.958Z,39184.91
2023-04-26T00:45:29.799Z,39198.88
2023-04-26T00:47:56.525Z,39260.72
2023-04-26T00:50:23.026Z,39266.72
2023-04-26T00:52:49.688Z,39280.66
2023-04-26T00:55:16.713Z,39308.59
2023-04-26T00:57:45.760Z,39352.47
2023-04-26T01:00:12.647Z,39392.38
2023-04-26T01:02:39.501Z,39430.28
2023-04-26T01:05:06.906Z,39428.28
2023-04-26T01:07:34.031Z,39480.16
2023-04-26T01:10:05.404Z,39500.09
2023-04-26T01:12:33.002Z,39575.91
2023-04-26T01:15:00.202Z,39615.81
2023-04-26T01:17:26.880Z,39611.81
2023-04-26T01:19:56.857Z,39647.72
2023-04-26T01:22:23.708Z,39683.63
2023-04-26T01:24:51.594Z,39755.47
2023-04-26T01:27:18.205Z,39795.38
2023-04-26T01:29:46.032Z,39807.34
2023-04-26T01:32:12.427Z,39847.22
2023-04-26T01:34:38.826Z,39907.09
2023-04-26T01:37:05.384Z,39925.03
2023-04-26T01:39:31.799Z,39954.97
2023-04-26T01:42:02.830Z,39998.88
2023-04-26T01:44:31.805Z,39996.88
2023-04-26T01:47:00.959Z,40082.66
2023-04-26T01:49:27.347Z,40110.59
2023-04-26T01:51:55.413Z,40130.56
2023-04-26T01:54:23.635Z,40184.44
2023-04-26T01:56:50.228Z,40244.28
2023-04-26T01:59:16.770Z,40266.22
2023-04-26T02:01:43.618Z,40278.22
2023-04-26T02:04:10.830Z,40280.19
2023-04-26T02:06:42.143Z,40344.06
2023-04-26T02:09:11.257Z,40344.06
2023-04-26T02:11:40.297Z,40381.97
2023-04-26T02:14:06.850Z,40405.91
2023-04-26T02:16:33.362Z,40449.81
2023-04-26T02:19:00.043Z,40463.78
2023-04-26T02:21:28.148Z,40523.66
2023-04-26T02:23:54.787Z,40517.66
2023-04-26T02:26:21.625Z,40525.63
2023-04-26T02:28:48.013Z,40589.50
2023-04-26T02:31:14.719Z,40609.44
2023-04-26T02:33:41.211Z,40593.50
2023-04-26T02:36:07.970Z,40639.38
2023-04-26T02:38:36.704Z,40625.41
2023-04-26T02:41:05.383Z,40633.41
2023-04-26T02:43:33.010Z,40691.28
2023-04-26T02:46:00.966Z,40709.22
2023-04-26T02:48:27.516Z,40713.22
2023-04-26T02:50:54.007Z,40719.22
2023-04-26T02:53:20.787Z,40741.16
2023-04-26T02:55:47.204Z,40771.09
2023-04-26T02:58:13.664Z,40793.06
2023-04-26T03:00:46.128Z,40824.97
2023-04-26T03:03:12.941Z,40832.97
2023-04-26T03:05:39.516Z,40848.94
2023-04-26T03:08:06.075Z,40888.84
2023-04-26T03:10:33.404Z,40888.84
2023-04-26T03:12:59.889Z,40928.75
2023-04-26T03:15:26.775Z,40934.75
2023-04-26T03:17:53.285Z,40940.72
2023-04-26T03:20:21.218Z,40932.75
2023-04-26T03:22:47.829Z,40972.66
2023-04-26T03:25:15.659Z,40932.75
2023-04-26T03:27:42.888Z,40960.69
2023-04-26T03:30:10.481Z,41020.56
2023-04-26T03:32:39.050Z,41032.53
2023-04-26T03:35:05.843Z,41092.41
2023-04-26T03:37:32.689Z,41082.44
2023-04-26T03:40:04.320Z,41092.41
2023-04-26T03:42:32.348Z,41140.31
2023-04-26T03:44:59.305Z,41144.31
2023-04-26T03:47:25.806Z,41172.25
2023-04-26T03:49:52.240Z,41160.28
2023-04-26T03:52:19.864Z,41152.28
2023-04-26T03:54:47.046Z,41184.22
2023-04-26T03:57:13.594Z,41188.22
2023-04-26T03:59:40.952Z,41200.19
2023-04-26T04:02:07.447Z,41200.19
2023-04-26T04:04:34.195Z,41200.19
2023-04-26T04:07:00.861Z,41202.19
2023-04-26T04:09:27.283Z,41216.16
2023-04-26T04:11:54.438Z,41256.09
2023-04-26T04:14:21.294Z,41244.09
2023-04-26T04:16:48.254Z,41260.06
2023-04-26T04:19:14.670Z,41266.06
2023-04-26T04:21:43.156Z,41288.00
2023-04-26T04:24:09.541Z,41294.00
2023-04-26T04:26:35.968Z,41331.94
2023-04-26T04:29:08.655Z,41319.94
2023-04-26T04:31:37.079Z,41323.94
2023-04-26T04:34:03.822Z,41347.91
2023-04-26T04:36:31.152Z,41377.84
2023-04-26T04:38:58.106Z,41389.81
2023-04-26T04:41:24.645Z,41387.81
2023-04-26T04:43:51.410Z,41403.78
2023-04-26T04:46:17.885Z,41375.84
2023-04-26T04:48:44.960Z,41409.78
2023-04-26T04:51:12.051Z,41451.69
2023-04-26T04:53:38.910Z,41451.69
2023-04-26T04:56:05.942Z,41479.63
2023-04-26T04:58:32.330Z,41519.56
2023-04-26T05:01:01.050Z,41543.50
2023-04-26T05:03:29.943Z,41553.50
2023-04-26T05:05:57.342Z,41603.41
2023-04-26T05:08:24.792Z,41599.41
2023-04-26T05:10:51.854Z,41657.28
2023-04-26T05:13:18.243Z,41663.28
2023-04-26T05:15:44.740Z,41669.25
2023-04-26T05:18:11.415Z,41695.22
2023-04-26T05:20:38.846Z,41707.19
2023-04-26T05:23:05.353Z,41725.16
2023-04-26T05:25:31.747Z,41727.16
2023-04-26T05:28:12.405Z,41709.19
2023-04-26T05:30:49.888Z,41691.22
2023-04-26T05:33:39.638Z,41687.22
2023-04-26T05:36:15.946Z,41637.31
2023-04-26T05:38:42.675Z,41627.34
2023-04-26T05:41:09.230Z,41615.38
2023-04-26T05:43:35.737Z,41595.41
2023-04-26T05:46:02.274Z,41587.44
2023-04-26T05:48:29.874Z,41553.50
2023-04-26T05:50:56.405Z,41547.50
2023-04-26T05:53:23.038Z,41513.56
2023-04-26T05:55:49.776Z,41515.56
2023-04-26T05:58:16.437Z,41515.56
2023-04-26T06:00:43.344Z,41491.63
2023-04-26T06:03:11.108Z,41515.56
2023-04-26T06:05:38.671Z,41475.63
2023-04-26T06:08:06.578Z,41475.63
2023-04-26T06:10:35.796Z,41475.63
2023-04-26T06:13:02.215Z,41419.75
2023-04-26T06:15:31.872Z,41403.78
2023-04-26T06:17:59.556Z,41399.78
2023-04-26T06:20:26.301Z,41385.81
2023-04-26T06:22:52.694Z,41365.84
2023-04-26T06:25:19.323Z,41341.91
2023-04-26T06:27:46.222Z,41323.94
2023-04-26T06:30:13.672Z,41290.00
2023-04-26T06:32:44.212Z,41307.97
2023-04-26T06:35:10.882Z,41296.00
2023-04-26T06:37:38.352Z,41286.03
2023-04-26T06:40:06.529Z,41307.97
2023-04-26T06:42:33.261Z,41309.97
2023-04-26T06:45:23.361Z,41300.00
2023-04-26T06:47:53.216Z,41284.03
2023-04-26T06:50:23.415Z,41319.94
2023-04-26T06:52:50.162Z,41292.00
2023-04-26T06:55:16.540Z,41282.03
2023-04-26T06:57:42.940Z,41292.00
2023-04-26T07:00:10.061Z,41256.09
2023-04-26T07:02:36.591Z,41252.09
2023-04-26T07:05:03.346Z,41244.09
2023-04-26T07:07:29.953Z,41282.03
2023-04-26T07:09:56.493Z,41252.09
2023-04-26T07:12:22.889Z,41240.13
2023-04-26T07:14:49.352Z,41208.19
2023-04-26T07:17:15.796Z,41212.16
2023-04-26T07:19:42.171Z,41222.16
2023-04-26T07:22:10.413Z,41196.19
2023-04-26T07:24:36.790Z,41192.22
2023-04-26T07:27:03.395Z,41172.25
2023-04-26T07:29:29.820Z,41126.34
2023-04-26T07:31:57.080Z,41080.44
2023-04-26T07:34:23.459Z,41100.41
2023-04-26T07:36:49.837Z,41098.41
2023-04-26T07:39:16.521Z,41060.47
2023-04-26T07:41:44.173Z,41036.53
2023-04-26T07:44:11.164Z,41020.56
2023-04-26T07:46:37.563Z,41000.59
2023-04-26T07:49:04.168Z,40988.63
2023-04-26T07:51:30.611Z,40884.84
2023-04-26T07:53:57.062Z,40924.78
2023-04-26T07:56:26.564Z,40948.72
2023-04-26T07:58:53.189Z,40928.75
2023-04-26T08:01:19.933Z,40908.81
2023-04-26T08:03:47.608Z,40936.75
2023-04-26T08:06:14.630Z,40916.78
2023-04-26T08:08:45.015Z,40898.81
2023-04-26T08:11:11.709Z,40872.88
2023-04-26T08:13:38.563Z,40848.94
2023-04-26T08:16:05.945Z,40821.00
2023-04-26T08:18:32.381Z,40721.22
2023-04-26T08:20:58.792Z,40641.38
2023-04-26T08:23:25.369Z,40601.47
2023-04-26T08:25:52.012Z,40567.53
2023-04-26T08:28:18.437Z,40489.72
2023-04-26T08:30:44.915Z,40451.81
2023-04-26T08:33:11.399Z,40387.94
2023-04-26T08:35:38.103Z,40377.97
2023-04-26T08:38:04.602Z,40294.16
2023-04-26T08:40:31.498Z,40316.13
2023-04-26T08:42:57.952Z,40286.19
2023-04-26T08:45:24.605Z,40286.19
2023-04-26T08:47:57.213Z,40248.28
2023-04-26T08:50:24.066Z,40230.31
2023-04-26T08:52:52.067Z,40186.41
2023-04-26T08:55:20.551Z,40200.38
2023-04-26T08:57:48.431Z,40094.63
2023-04-26T09:00:16.469Z,40056.72
2023-04-26T09:02:51.172Z,40072.69
2023-04-26T09:05:23.533Z,40006.84
2023-04-26T09:07:51.129Z,40006.84
2023-04-26T09:10:22.026Z,40030.78
2023-04-26T09:12:53.751Z,40022.81
2023-04-26T09:15:24.822Z,40006.84
2023-04-26T09:17:52.187Z,39994.88
2023-04-26T09:20:19.149Z,39994.88
2023-04-26T09:22:46.376Z,39891.13
2023-04-26T09:25:13.528Z,39881.16
2023-04-26T09:27:43.856Z,39859.22
2023-04-26T09:30:16.950Z,39787.38
2023-04-26T09:32:43.349Z,39791.38
2023-04-26T09:35:21.805Z,39843.25
2023-04-26T09:37:59.427Z,39903.09
2023-04-26T09:40:35.985Z,39897.13
2023-04-26T09:43:05.461Z,39781.41
2023-04-26T09:45:42.602Z,39759.44
2023-04-26T09:48:23.432Z,39779.41
2023-04-26T09:50:52.561Z,39701.59
2023-04-26T09:53:37.113Z,39699.59
2023-04-26T09:56:18.870Z,39745.47
2023-04-26T09:58:59.354Z,39673.66
2023-04-26T10:01:29.754Z,39583.88
2023-04-26T10:04:01.685Z,39526.03
2023-04-26T10:06:28.559Z,39563.94
2023-04-26T10:08:55.282Z,39587.88
2023-04-26T10:11:23.093Z,39579.91
2023-04-26T10:13:50.880Z,39639.75
2023-04-26T10:16:17.574Z,39593.88
2023-04-26T10:18:43.998Z,39530.03
2023-04-26T10:21:22.462Z,39464.19
2023-04-26T10:23:49.922Z,39452.22
2023-04-26T10:26:48.678Z,39442.25
2023-04-26T10:29:15.426Z,39416.31
2023-04-26T10:32:01.475Z,39464.19
2023-04-26T10:34:31.142Z,39462.19
2023-04-26T10:37:12.482Z,39438.25
2023-04-26T10:39:40.698Z,39426.28
2023-04-26T10:42:24.741Z,39432.28
2023-04-26T10:44:53.026Z,39496.13
2023-04-26T10:47:31.930Z,39410.34
2023-04-26T10:50:07.221Z,39286.66
2023-04-26T10:52:55.508Z,39316.56
2023-04-26T10:55:41.981Z,39304.59
2023-04-26T10:58:40.812Z,39336.53
2023-04-26T11:01:17.485Z,39312.59
2023-04-26T11:04:04.983Z,39276.69
2023-04-26T11:06:49.579Z,39306.59
2023-04-26T11:09:37.986Z,39300.63
2023-04-26T11:12:05.550Z,39324.56
2023-04-26T11:14:34.314Z,39340.50
2023-04-26T11:17:05.458Z,39354.47
2023-04-26T11:19:32.948Z,39234.78
2023-04-26T11:22:01.014Z,39272.69
2023-04-26T11:24:29.886Z,39276.69
2023-04-26T11:26:58.445Z,39300.63
2023-04-26T11:29:25.733Z,39280.66
2023-04-26T11:31:53.577Z,39302.63
2023-04-26T11:34:36.698Z,39314.59
2023-04-26T11:37:04.655Z,39292.63
2023-04-26T11:39:35.501Z,39288.66
2023-04-26T11:42:10.152Z,39246.75
2023-04-26T11:44:37.584Z,39194.91
2023-04-26T11:47:05.403Z,39178.94
2023-04-26T11:49:33.100Z,39202.88
2023-04-26T11:52:00.280Z,39244.75
2023-04-26T11:54:30.633Z,39192.91
2023-04-26T11:56:58.537Z,39204.88
2023-04-26T11:59:26.078Z,39234.78
2023-04-26T12:01:53.199Z,39264.72
2023-04-26T12:04:23.575Z,39288.66
2023-04-26T12:06:51.016Z,39304.59
2023-04-26T12:09:23.256Z,39358.47
2023-04-26T12:11:58.858Z,39334.53
2023-04-26T12:14:32.310Z,39312.59
2023-04-26T12:16:59.295Z,39380.41
2023-04-26T12:19:26.347Z,39500.09
2023-04-26T12:21:53.283Z,39557.97
2023-04-26T12:24:38.509Z,39555.97
2023-04-26T12:27:07.052Z,39496.13
2023-04-26T12:29:35.683Z,39334.53
2023-04-26T12:32:02.617Z,39123.09
2023-04-26T12:34:29.511Z,39105.13
2023-04-26T12:36:56.154Z,39127.06
2023-04-26T12:39:22.872Z,39089.19
2023-04-26T12:41:49.462Z,39099.16
2023-04-26T12:44:16.162Z,38865.78
2023-04-26T12:46:42.763Z,38774.03
2023-04-26T12:49:09.225Z,38650.38
2023-04-26T12:51:35.924Z,38666.34
2023-04-26T12:54:02.911Z,38614.47
2023-04-26T12:56:29.647Z,38554.66
2023-04-26T12:58:56.098Z,38610.50
2023-04-26T13:01:22.937Z,38538.69
2023-04-26T13:03:49.672Z,38594.53
2023-04-26T13:06:16.717Z,38574.59
2023-04-26T13:08:43.154Z,38550.66
2023-04-26T13:11:09.840Z,38542.69
2023-04-26T13:13:43.796Z,38542.69
2023-04-26T13:16:12.625Z,38470.88
2023-04-26T13:18:40.394Z,38407.06
2023-04-26T13:21:07.048Z,38409.06
2023-04-26T13:23:33.517Z,38403.09
2023-04-26T13:25:59.959Z,38403.09
2023-04-26T13:28:26.482Z,38407.06
2023-04-26T13:30:53.068Z,38440.97
2023-04-26T13:33:20.955Z,38474.88
2023-04-26T13:35:47.493Z,38502.78
2023-04-26T13:38:14.195Z,38526.72
2023-04-26T13:40:40.855Z,38470.88
2023-04-26T13:43:07.704Z,38486.84
2023-04-26T13:45:36.657Z,38474.88
2023-04-26T13:48:03.568Z,38474.88
2023-04-26T13:50:30.178Z,38468.91
2023-04-26T13:52:56.827Z,38359.22
2023-04-26T13:55:23.641Z,38347.25
2023-04-26T13:57:50.104Z,38383.13
2023-04-26T14:00:17.289Z,38295.41
2023-04-26T14:02:46.943Z,38343.25
2023-04-26T14:05:13.760Z,38359.22
2023-04-26T14:07:41.510Z,38299.38
2023-04-26T14:10:08.769Z,38267.47
2023-04-26T14:12:35.293Z,38287.41
2023-04-26T14:15:06.027Z,38263.50
2023-04-26T14:17:32.787Z,38281.44
2023-04-26T14:19:59.302Z,38203.66
2023-04-26T14:22:26.992Z,38147.81
2023-04-26T14:24:53.474Z,38107.94
2023-04-26T14:27:20.281Z,38084.00
2023-04-26T14:29:46.658Z,38068.06
2023-04-26T14:32:13.658Z,38052.13
2023-04-26T14:34:40.272Z,38034.16
2023-04-26T14:37:06.756Z,37996.28
2023-04-26T14:39:33.635Z,37932.47
2023-04-26T14:42:00.542Z,37972.34
2023-04-26T14:44:27.249Z,37948.44
2023-04-26T14:46:53.690Z,37946.44
2023-04-26T14:49:20.445Z,37896.59
2023-04-26T14:51:46.901Z,37856.69
2023-04-26T14:54:13.400Z,37920.50
2023-04-26T14:56:39.791Z,37878.63
2023-04-26T14:59:06.234Z,37980.31
2023-04-26T15:01:33.016Z,37986.31
2023-04-26T15:04:01.257Z,38002.25
2023-04-26T15:06:28.640Z,37984.31
2023-04-26T15:08:55.032Z,37930.47
2023-04-26T15:11:22.251Z,37972.34
2023-04-26T15:13:48.658Z,37840.75
2023-04-26T15:16:15.417Z,37858.69
2023-04-26T15:18:41.842Z,37852.72
2023-04-26T15:21:09.094Z,37900.56
2023-04-26T15:23:35.893Z,37888.59
2023-04-26T15:26:03.434Z,37900.56
2023-04-26T15:28:30.279Z,37848.72
2023-04-26T15:31:04.143Z,37868.66
2023-04-26T15:33:31.013Z,37864.69
2023-04-26T15:35:57.442Z,37824.81
2023-04-26T15:38:24.118Z,37812.84
2023-04-26T15:40:56.715Z,37840.75
2023-04-26T15:43:23.153Z,37830.78
2023-04-26T15:45:49.728Z,37838.75
2023-04-26T15:48:16.627Z,37826.78
2023-04-26T15:50:43.030Z,37828.78
2023-04-26T15:53:09.801Z,37832.78
2023-04-26T15:55:36.313Z,37820.81
2023-04-26T15:58:02.860Z,37784.91
2023-04-26T16:00:31.055Z,37804.84
2023-04-26T16:02:57.684Z,37764.97
2023-04-26T16:05:24.432Z,37761.00
2023-04-26T16:07:51.115Z,37770.97
2023-04-26T16:10:17.489Z,37691.22
2023-04-26T16:12:44.731Z,37689.22
2023-04-26T16:15:11.882Z,37729.09
2023-04-26T16:17:39.149Z,37725.09
2023-04-26T16:20:07.211Z,37683.22
2023-04-26T16:22:35.467Z,37729.09
2023-04-26T16:25:03.952Z,37685.22
2023-04-26T16:27:30.515Z,37669.28
2023-04-26T16:29:57.055Z,37657.31
2023-04-26T16:32:23.729Z,37641.38
2023-04-26T16:34:51.390Z,37609.47
2023-04-26T16:37:17.834Z,37629.41
2023-04-26T16:39:44.288Z,37675.25
2023-04-26T16:42:11.019Z,37657.31
2023-04-26T16:44:37.484Z,37641.38
2023-04-26T16:47:04.105Z,37653.31
2023-04-26T16:49:30.565Z,37653.31
2023-04-26T16:51:58.918Z,37655.31
2023-04-26T16:54:26.269Z,37613.44
2023-04-26T16:56:53.524Z,37639.38
2023-04-26T16:59:20.573Z,37617.44
2023-04-26T17:01:47.294Z,37673.25
2023-04-26T17:04:14.152Z,37617.44
2023-04-26T17:06:41.313Z,37621.44
2023-04-26T17:09:08.646Z,37641.38
2023-04-26T17:11:37.135Z,37625.41
2023-04-26T17:14:04.389Z,37627.41
2023-04-26T17:16:31.018Z,37617.44
2023-04-26T17:18:58.621Z,37601.50
2023-04-26T17:21:25.269Z,37597.50
2023-04-26T17:23:52.666Z,37593.50
2023-04-26T17:26:19.186Z,37589.53
2023-04-26T17:28:45.678Z,37567.59
2023-04-26T17:31:12.567Z,37589.53
2023-04-26T17:33:39.002Z,37601.50
2023-04-26T17:36:06.226Z,37627.41
2023-04-26T17:38:32.807Z,37619.44
2023-04-26T17:40:59.577Z,37583.53
2023-04-26T17:43:26.076Z,37609.47
2023-04-26T17:45:52.770Z,37581.56
2023-04-26T17:48:19.206Z,37593.50
2023-04-26T17:50:45.700Z,37557.63
2023-04-26T17:53:12.109Z,37531.72
2023-04-26T17:55:38.833Z,37557.63
2023-04-26T17:58:05.220Z,37565.59
2023-04-26T18:00:31.742Z,37565.59
2023-04-26T18:02:58.889Z,37627.41
2023-04-26T18:05:25.617Z,37627.41
2023-04-26T18:07:52.222Z,37673.25
2023-04-26T18:10:18.769Z,37635.38
2023-04-26T18:12:45.140Z,37651.34
2023-04-26T18:15:13.512Z,37593.50
2023-04-26T18:17:41.200Z,37587.53
2023-04-26T18:20:08.297Z,37565.59
2023-04-26T18:22:34.767Z,37585.53
2023-04-26T18:25:01.349Z,37599.50
2023-04-26T18:27:27.941Z,37601.50
2023-04-26T18:29:54.405Z,37551.66
2023-04-26T18:32:20.914Z,37565.59
2023-04-26T18:34:47.869Z,37533.69
2023-04-26T18:37:14.711Z,37541.69
2023-04-26T18:39:41.579Z,37547.66
2023-04-26T18:42:08.041Z,37549.66
2023-04-26T18:44:34.431Z,37563.59
2023-04-26T18:47:01.397Z,37569.59
2023-04-26T18:49:27.913Z,37541.69
2023-04-26T18:51:54.571Z,37555.63
2023-04-26T18:54:21.103Z,37561.63
2023-04-26T18:56:47.554Z,37571.59
2023-04-26T18:59:13.960Z,37589.53
2023-04-26T19:01:40.932Z,37563.59
2023-04-26T19:04:08.984Z,37605.47
2023-04-26T19:06:35.697Z,37589.53
2023-04-26T19:09:02.356Z,37601.50
2023-04-26T19:11:28.760Z,37597.50
2023-04-26T19:13:55.239Z,37571.59
2023-04-26T19:16:22.187Z,37593.50
2023-04-26T19:18:49.066Z,37601.50
2023-04-26T19:21:16.206Z,37613.44
2023-04-26T19:23:45.429Z,37617.44
2023-04-26T19:26:13.422Z,37605.47
2023-04-26T19:28:40.691Z,37609.47
2023-04-26T19:31:07.155Z,37651.34
2023-04-26T19:33:33.552Z,37617.44
2023-04-26T19:35:59.935Z,37639.38
2023-04-26T19:38:26.423Z,37631.41
2023-04-26T19:40:53.035Z,37633.38
2023-04-26T19:43:19.780Z,37635.38
2023-04-26T19:45:46.452Z,37633.38
2023-04-26T19:48:13.293Z,37665.28
2023-04-26T19:50:44.817Z,37697.19
2023-04-26T19:53:12.950Z,37701.19
2023-04-26T19:55:40.953Z,37727.09
2023-04-26T19:58:08.232Z,37721.13
2023-04-26T20:00:39.006Z,37679.25
2023-04-26T20:03:05.838Z,37721.13
2023-04-26T20:05:33.602Z,37715.13
2023-04-26T20:08:00.260Z,37729.09
2023-04-26T20:10:30.071Z,37761.00
2023-04-26T20:12:56.445Z,37755.00
2023-04-26T20:15:22.990Z,37707.16
2023-04-26T20:17:49.399Z,37713.13
2023-04-26T20:20:16.323Z,37729.09
2023-04-26T20:22:42.739Z,37689.22
2023-04-26T20:25:09.333Z,37725.09
2023-04-26T20:27:35.754Z,37717.13
2023-04-26T20:30:02.599Z,37711.16
2023-04-26T20:32:29.051Z,37749.03
2023-04-26T20:34:55.615Z,37739.06
2023-04-26T20:37:22.113Z,37715.13
2023-04-26T20:39:49.155Z,37725.09
2023-04-26T20:42:15.944Z,37717.13
2023-04-26T20:44:42.473Z,37717.13
2023-04-26T20:47:09.302Z,37735.06
2023-04-26T20:49:35.832Z,37721.13
2023-04-26T20:52:02.331Z,37733.09
2023-04-26T20:54:28.733Z,37753.03
2023-04-26T20:56:55.402Z,37796.88
2023-04-26T20:59:22.369Z,37770.97
2023-04-26T21:01:49.955Z,37770.97
2023-04-26T21:04:16.619Z,37763.00
2023-04-26T21:06:43.498Z,37709.16
2023-04-26T21:09:10.141Z,37733.09
2023-04-26T21:11:37.005Z,37749.03
2023-04-26T21:14:04.186Z,37735.06
2023-04-26T21:16:30.856Z,37743.06
2023-04-26T21:18:57.313Z,37745.03
2023-04-26T21:21:23.957Z,37764.97
2023-04-26T21:23:51.437Z,37768.97
2023-04-26T21:26:17.840Z,37772.97
2023-04-26T21:28:44.596Z,37784.91
2023-04-26T21:31:11.646Z,37757.00
2023-04-26T21:33:38.055Z,37761.00
2023-04-26T21:36:04.839Z,37788.91
2023-04-26T21:38:31.220Z,37784.91
2023-04-26T21:40:57.618Z,37776.94
2023-04-26T21:43:24.897Z,37766.97
2023-04-26T21:45:52.295Z,37766.97
2023-04-26T21:48:18.665Z,37731.09
2023-04-26T21:50:48.210Z,37751.03
2023-04-26T21:53:14.572Z,37725.09
2023-04-26T21:55:41.043Z,37761.00
2023-04-26T21:58:08.935Z,37739.06
2023-04-26T22:00:35.387Z,37737.06
2023-04-26T22:03:02.413Z,37751.03
2023-04-26T22:05:29.258Z,37763.00
2023-04-26T22:07:55.820Z,37753.03
2023-04-26T22:10:22.263Z,37766.97
2023-04-26T22:12:49.164Z,37790.91
2023-04-26T22:15:16.187Z,37804.84
2023-04-26T22:17:42.759Z,37776.94
2023-04-26T22:20:09.821Z,37792.91
2023-04-26T22:22:36.442Z,37788.91
2023-04-26T22:25:03.790Z,37796.88
2023-04-26T22:27:31.635Z,37814.81
2023-04-26T22:30:00.772Z,37822.81
2023-04-26T22:32:32.833Z,37808.84
2023-04-26T22:34:59.244Z,37820.81
2023-04-26T22:37:25.748Z,37820.81
2023-04-26T22:39:53.445Z,37830.78
2023-04-26T22:42:19.858Z,37828.78
2023-04-26T22:44:46.767Z,37846.72
2023-04-26T22:47:13.144Z,37830.78
2023-04-26T22:49:39.547Z,37840.75
2023-04-26T22:52:14.219Z,37832.78
2023-04-26T22:54:46.803Z,37848.72
2023-04-26T22:57:13.248Z,37826.78
2023-04-26T22:59:39.638Z,37820.81
2023-04-26T23:02:06.257Z,37844.75
2023-04-26T23:04:32.744Z,37872.66
2023-04-26T23:06:59.476Z,37858.69
2023-04-26T23:09:25.903Z,37868.66
2023-04-26T23:11:52.402Z,37888.59
2023-04-26T23:14:19.767Z,37872.66
2023-04-26T23:16:46.533Z,37904.56
2023-04-26T23:19:13.469Z,37918.50
2023-04-26T23:21:40.552Z,37916.53
2023-04-26T23:24:06.975Z,37888.59
2023-04-26T23:26:33.399Z,37940.44
2023-04-26T23:28:59.850Z,37966.38
2023-04-26T23:31:26.268Z,37988.31
2023-04-26T23:33:53.215Z,37992.28
2023-04-26T23:36:19.612Z,38020.22
2023-04-26T23:38:46.117Z,38020.22
2023-04-26T23:41:12.645Z,38032.16
2023-04-26T23:43:39.084Z,38056.09
2023-04-26T23:46:05.857Z,38056.09
2023-04-26T23:48:32.231Z,38115.91
2023-04-26T23:51:00.159Z,38113.94
2023-04-26T23:53:27.699Z,38139.84
2023-04-26T23:55:54.575Z,38159.78
2023-04-26T23:58:21.787Z,38167.78
